KHIB/HIB METAR and TAF weather

Enter ICAO airport designator
Station Type Date Time Source
KHIB METAR 2021/08/01 17:53 UTC NOAA

KHIB 011753Z AUTO 34009G21KT 10SM OVC060 21/09 A3022 RMK AO2 SLP235 T02060089 10217 20128 58001


Station Type Date Time Source
KHIB Decoded METAR 2021/08/01 17:53 UTC NOAA

CHISHOLM-HIBBING AIRPORT, MN, United States (KHIB) 47-23N 92-50W 412M
Aug 01, 2021 - 01:53 PM EDT / 2021.08.01 1753 UTC
Wind: from the NNW (340 degrees) at 10 MPH (9 KT) gusting to 24 MPH (21 KT):0
Visibility: 10 mile(s):0
Sky conditions: overcast
Temperature: 69.1 F (20.6 C)
Dew Point: 48.0 F (8.9 C)
Relative Humidity: 46%
Pressure (altimeter): 30.22 in. Hg (1023 hPa)
Pressure tendency: 0.00 inches (0.1 hPa) lower than three hours ago
ob: KHIB 011753Z AUTO 34009G21KT 10SM OVC060 21/09 A3022 RMK AO2 SLP235 T02060089 10217 20128 58001
cycle: 18

Station Type Date Time Source
KHIB TAF 2021/08/01 18:30 UTC NOAA

TAF KHIB 011728Z 0118/0218 36009G16KT P6SM BKN060
FM012200 35008KT P6SM SCT060
FM020300 VRB03KT 5SM HZ SCT090
FM021600 30008KT 6SM HZ SCT070

Example: see airport list